Time;durP1;ratioP1;P1;durP2;ratioP2;P2;SDS_P1;SDS_P2;PMS_P1;PMS_P2;Temp;Humidity;BMP_temperature;BMP_pressure;BME280_temperature;BME280_humidity;BME280_pressure;Samples;Min_cycle;Max_cycle;Signal;HPM_P1;HPM_P2
2022/04/03 00:00:57;;;;;;;4.00;1.80;;;;;;;-3.99;83.37;102200.47;4933736;29;20028;-84
2022/04/03 00:05:49;;;;;;;5.03;2.25;;;;;;;-4.16;84.61;102183.53;4917570;23;20045;-83
2022/04/03 00:11:43;;;;;;;4.25;1.77;;;;;;;-4.14;84.60;102178.19;4885861;29;20049;-83
2022/04/03 00:14:08;;;;;;;3.20;1.90;;;;;;;-3.99;84.99;102210.94;4910769;29;20040;-83
2022/04/03 00:16:35;;;;;;;6.10;2.33;;;;;;;-3.96;84.96;102210.69;4894209;29;20515;-83
2022/04/03 00:19:00;;;;;;;3.70;2.30;;;;;;;-4.04;84.84;102201.81;4878960;29;20055;-84
2022/04/03 00:21:26;;;;;;;4.23;2.20;;;;;;;-4.09;85.01;102203.97;4895727;29;20832;-83
2022/04/03 00:23:51;;;;;;;5.23;2.10;;;;;;;-4.15;85.51;102208.75;4906801;29;20649;-83
2022/04/03 00:26:18;;;;;;;4.82;2.03;;;;;;;-4.20;85.93;102197.00;4893251;29;20096;-83
2022/04/03 00:28:43;;;;;;;4.93;1.97;;;;;;;-4.28;86.16;102192.41;4894923;29;20111;-84
2022/04/03 00:31:10;;;;;;;8.65;2.15;;;;;;;-4.31;86.77;102205.72;4895560;29;20099;-83
2022/04/03 00:33:36;;;;;;;4.93;2.10;;;;;;;-4.34;87.25;102200.75;4893652;29;20044;-83
2022/04/03 00:36:01;;;;;;;5.70;2.20;;;;;;;-4.43;87.44;102203.16;4876965;29;20034;-83
2022/04/03 00:38:26;;;;;;;5.47;2.10;;;;;;;-4.48;87.90;102200.09;4877769;29;20037;-83
2022/04/03 00:41:00;;;;;;;5.30;2.20;;;;;;;-4.62;88.27;102176.84;5017167;23;20316;-83
2022/04/03 00:43:25;;;;;;;6.28;2.30;;;;;;;-4.46;88.39;102207.81;4876815;29;20052;-83
2022/04/03 00:45:52;;;;;;;5.70;2.10;;;;;;;-4.71;88.39;102168.75;4892893;29;20366;-83
2022/04/03 00:48:17;;;;;;;6.57;2.33;;;;;;;-4.58;88.35;102202.63;4893145;29;20396;-83
2022/04/03 00:50:43;;;;;;;4.50;2.40;;;;;;;-4.59;88.81;102207.97;4893477;29;20033;-83
2022/04/03 00:53:09;;;;;;;6.18;2.67;;;;;;;-4.62;89.28;102208.22;4876956;29;20055;-83
2022/04/03 00:55:35;;;;;;;4.72;2.13;;;;;;;-4.68;89.20;102208.72;4893309;29;20461;-83
2022/04/03 00:58:01;;;;;;;3.13;2.17;;;;;;;-4.66;89.22;102217.28;4895071;29;20028;-83
2022/04/03 01:00:27;;;;;;;3.80;2.30;;;;;;;-4.76;89.34;102202.31;4893338;29;20056;-83
2022/04/03 01:02:52;;;;;;;6.67;2.77;;;;;;;-4.80;89.91;102206.13;4893265;29;20068;-84
2022/04/03 01:05:18;;;;;;;5.73;2.40;;;;;;;-4.78;89.38;102213.84;4892587;29;20041;-84
2022/04/03 01:07:44;;;;;;;4.73;2.70;;;;;;;-4.84;89.57;102212.56;4894133;29;20742;-84
2022/04/03 01:10:09;;;;;;;5.40;2.65;;;;;;;-5.00;90.02;102199.03;4895076;29;20041;-84
2022/04/03 01:12:44;;;;;;;8.50;2.57;;;;;;;-4.94;90.17;102206.41;4891951;29;20105;-84
2022/04/03 01:15:09;;;;;;;6.97;2.58;;;;;;;-5.02;90.46;102199.97;4893975;29;20125;-84
2022/04/03 01:17:35;;;;;;;4.33;2.27;;;;;;;-5.05;90.85;102196.78;4875342;29;20138;-84
2022/04/03 01:20:00;;;;;;;7.28;2.58;;;;;;;-5.07;91.04;102202.13;4893642;29;20389;-83
2022/04/03 01:22:26;;;;;;;6.13;2.50;;;;;;;-5.17;91.41;102188.13;4892157;29;20567;-83
2022/04/03 01:25:21;;;;;;;3.83;2.10;;;;;;;-5.08;91.18;102213.53;4894028;29;20727;-85
2022/04/03 01:31:13;;;;;;;4.50;2.60;;;;;;;-5.22;91.47;102195.47;4763987;29;20195;-84
2022/04/03 01:34:12;;;;;;;5.35;2.38;;;;;;;-5.29;91.84;102183.84;4849182;23;20055;-84
2022/04/03 01:37:33;;;;;;;;;;;;;;;;;;;;;
2022/04/03 01:39:59;;;;;;;6.60;2.00;;;;;;;-5.43;91.81;102167.44;4893600;29;20042;-84
2022/04/03 01:42:24;;;;;;;6.83;2.50;;;;;;;-5.28;92.56;102188.09;4896077;29;20118;-84
2022/04/03 01:45:10;;;;;;;5.70;2.73;;;;;;;-5.24;92.75;102194.75;4912025;29;20040;-84
2022/04/03 01:54:16;;;;;;;5.78;2.22;;;;;;;-5.55;92.42;102158.78;4893763;23;20080;-84
2022/04/03 01:57:25;;;;;;;5.87;2.77;;;;;;;-5.38;92.64;102191.44;4931963;29;20197;-84
2022/04/03 02:03:36;;;;;;;6.38;2.50;;;;;;;-5.33;93.12;102198.91;4885909;29;20092;-87
2022/04/03 02:28:12;;;;;;;5.68;2.60;;;;;;;-5.51;92.79;102188.13;4911677;29;20040;-86
2022/04/03 02:33:59;;;;;;;4.20;2.47;;;;;;;-5.61;93.05;102182.78;5072714;23;20062;-86
2022/04/03 02:36:25;;;;;;;5.90;2.70;;;;;;;-5.66;93.47;102183.09;4914048;29;20028;-86
2022/04/03 03:23:00;;;;;;;7.15;2.65;;;;;;;-6.07;94.55;102173.22;4863485;23;21194;-85
2022/04/03 03:26:31;;;;;;;8.13;2.80;;;;;;;-6.16;94.46;102164.28;4934634;29;20055;-85
2022/04/03 03:35:19;;;;;;;4.78;2.45;;;;;;;-6.23;95.09;102192.63;5121822;23;20537;-86
2022/04/03 03:38:08;;;;;;;6.97;2.87;;;;;;;-6.37;95.11;102172.75;4933173;29;20031;-85
2022/04/03 03:40:38;;;;;;;8.67;3.00;;;;;;;-6.37;95.59;102172.75;4933081;29;20303;-85
2022/04/03 03:43:22;;;;;;;11.32;2.95;;;;;;;-6.28;95.48;102192.13;4933677;29;20035;-86
2022/04/03 03:45:48;;;;;;;5.35;3.17;;;;;;;-6.29;96.16;102180.88;4933018;29;20031;-86
2022/04/03 03:48:13;;;;;;;10.48;3.30;;;;;;;-6.15;96.47;102195.50;4932691;29;20020;-85
2022/04/03 03:50:39;;;;;;;5.67;3.13;;;;;;;-6.15;96.52;102197.28;4931392;29;20031;-85
2022/04/03 03:53:04;;;;;;;12.60;3.10;;;;;;;-6.22;96.87;102189.06;4934070;29;20032;-85
2022/04/03 03:55:31;;;;;;;7.10;2.70;;;;;;;-6.19;96.83;102186.22;4933909;29;20276;-85
2022/04/03 08:00:07;;;;;;;11.75;6.07;;;;;;;-1.15;98.10;102304.31;4884844;29;20108;-84
2022/04/03 08:20:51;;;;;;;12.40;4.53;;;;;;;-0.08;92.35;102288.09;4898621;29;20472;-84
2022/04/03 10:03:50;;;;;;;1.27;0.90;;;;;;;4.82;62.33;102281.16;5128265;23;20480;-84
2022/04/03 10:52:43;;;;;;;2.17;0.70;;;;;;;8.38;48.45;102247.06;4938853;23;20817;-84
2022/04/03 12:21:11;;;;;;;2.97;1.00;;;;;;;7.97;50.54;102185.69;5716068;23;20129;-84
2022/04/03 18:55:33;;;;;;;8.57;3.22;;;;;;;2.07;81.88;102040.53;5934916;23;20020;-89
2022/04/03 18:58:00;;;;;;;3.97;2.57;;;;;;;1.98;81.65;102038.91;4935895;29;20490;-89
2022/04/03 19:05:47;;;;;;;2.75;1.77;;;;;;;1.66;81.93;102021.13;5200284;23;20059;-89
2022/04/03 19:08:18;;;;;;;4.50;1.90;;;;;;;1.71;82.04;102038.31;4950167;29;20035;-90
2022/04/03 19:17:45;;;;;;;3.63;1.60;;;;;;;1.60;81.87;102042.97;4835845;29;20490;-90
2022/04/03 19:27:03;;;;;;;2.97;1.80;;;;;;;1.31;82.65;102023.19;4954086;29;20042;-89
2022/04/03 19:29:38;;;;;;;4.17;1.70;;;;;;;1.39;82.99;102029.47;4954009;29;20295;-88
2022/04/03 19:32:35;;;;;;;2.25;1.65;;;;;;;1.26;82.65;102014.09;4951828;29;20042;-90
2022/04/03 19:35:15;;;;;;;3.40;1.70;;;;;;;1.20;82.46;102007.69;4931455;29;20511;-89
2022/04/03 19:37:48;;;;;;;4.60;1.77;;;;;;;1.27;83.24;102024.53;4935994;29;20023;-90
2022/04/03 19:40:43;;;;;;;4.63;2.03;;;;;;;1.31;82.92;102032.94;4953588;28;20058;-89
2022/04/03 19:43:36;;;;;;;4.03;1.55;;;;;;;1.23;82.56;102036.41;4959348;29;20460;-89
2022/04/03 19:46:27;;;;;;;3.50;2.17;;;;;;;1.18;83.13;102044.00;5083784;23;20680;-89
2022/04/03 19:48:53;;;;;;;3.80;2.30;;;;;;;1.11;83.91;102037.69;4943948;29;20039;-89
2022/04/03 19:51:21;;;;;;;6.07;2.60;;;;;;;0.99;84.16;102035.41;4928537;29;20032;-89
2022/04/03 19:54:29;;;;;;;6.57;2.30;;;;;;;0.80;83.50;102009.31;4943264;29;20083;-89
2022/04/03 20:00:16;;;;;;;3.78;2.00;;;;;;;0.67;84.55;102018.56;4904275;23;1091074;-88
2022/04/03 20:02:44;;;;;;;3.90;1.70;;;;;;;0.69;85.19;102027.13;4896399;29;20427;-89
2022/04/03 20:06:12;;;;;;;4.05;1.63;;;;;;;0.78;84.76;102049.09;4915908;29;20342;-89
2022/04/03 20:08:37;;;;;;;4.20;2.38;;;;;;;0.69;85.47;102034.19;4909151;29;20056;-88
2022/04/03 20:14:24;;;;;;;7.40;2.83;;;;;;;0.68;85.74;102033.41;4909369;29;20123;-89
2022/04/03 20:16:50;;;;;;;7.20;3.20;;;;;;;0.62;85.82;102028.75;4907406;29;20115;-88
2022/04/03 20:19:15;;;;;;;8.98;3.17;;;;;;;0.57;85.71;102028.41;4906574;23;20401;-88
2022/04/03 20:21:46;;;;;;;7.03;3.10;;;;;;;0.49;86.14;102023.13;4933083;29;20099;-88
2022/04/03 20:24:11;;;;;;;8.32;3.47;;;;;;;0.45;85.85;102027.91;4945047;29;20042;-84
2022/04/03 20:26:37;;;;;;;9.33;3.77;;;;;;;0.37;86.59;102019.97;4945720;29;20031;-86
2022/04/03 20:29:03;;;;;;;9.57;4.13;;;;;;;0.37;86.74;102030.50;4933910;29;20031;-84
2022/04/03 20:31:29;;;;;;;10.98;4.38;;;;;;;0.33;86.99;102022.09;4933071;29;20094;-84
2022/04/03 20:33:54;;;;;;;12.40;4.70;;;;;;;0.34;87.32;102029.03;4931257;29;20036;-85
2022/04/03 20:36:19;;;;;;;10.03;4.63;;;;;;;0.28;87.55;102021.75;4932577;29;20043;-85
2022/04/03 20:38:45;;;;;;;6.90;4.47;;;;;;;0.27;87.62;102030.63;4932098;29;20026;-85
2022/04/03 20:41:11;;;;;;;9.20;3.97;;;;;;;0.26;87.84;102031.63;4912502;29;20119;-85
2022/04/03 20:43:38;;;;;;;7.47;3.28;;;;;;;0.17;87.87;102014.94;4913995;29;20123;-84
2022/04/03 20:46:03;;;;;;;9.82;3.72;;;;;;;0.18;88.26;102008.69;4932125;29;20027;-84
2022/04/03 20:48:29;;;;;;;5.90;3.87;;;;;;;0.16;88.03;102018.56;4931331;29;20076;-84
2022/04/03 20:50:56;;;;;;;5.78;3.70;;;;;;;0.15;87.91;102014.28;4932687;29;20067;-85
2022/04/03 20:53:21;;;;;;;7.60;3.70;;;;;;;0.08;88.02;102010.63;4931145;29;20435;-85
2022/04/03 20:55:47;;;;;;;7.30;3.97;;;;;;;0.02;88.05;102003.34;4931991;29;20024;-84
2022/04/03 20:58:13;;;;;;;9.45;3.92;;;;;;;0.04;88.49;102009.31;4931904;29;20027;-83
2022/04/03 21:00:38;;;;;;;9.27;4.30;;;;;;;0.02;88.64;101998.09;4931549;29;20024;-83
2022/04/03 21:03:04;;;;;;;7.85;4.68;;;;;;;-0.01;88.24;102002.69;4930209;29;20506;-83
2022/04/03 21:05:29;;;;;;;12.13;5.60;;;;;;;-0.03;88.82;101998.56;4932180;29;20506;-84
2022/04/03 21:07:55;;;;;;;18.97;7.10;;;;;;;-0.03;88.99;102001.22;4932298;29;20075;-84
2022/04/03 21:10:20;;;;;;;29.02;9.43;;;;;;;-0.07;88.68;101995.41;4932395;29;20492;-84
2022/04/03 21:12:45;;;;;;;29.63;9.37;;;;;;;-0.06;88.96;101994.41;4921644;29;20047;-84
2022/04/03 21:15:11;;;;;;;25.13;8.77;;;;;;;-0.05;89.18;101990.81;4924667;29;20040;-84
2022/04/03 21:17:36;;;;;;;15.17;6.37;;;;;;;-0.08;89.42;101993.75;4931930;29;20036;-84
2022/04/03 21:20:03;;;;;;;12.13;5.40;;;;;;;-0.11;89.47;101983.56;4931891;29;20647;-84
2022/04/03 21:22:28;;;;;;;8.60;4.05;;;;;;;-0.07;89.79;101984.06;4932412;29;20099;-83
2022/04/03 21:24:53;;;;;;;7.10;3.50;;;;;;;-0.06;90.17;101986.50;4932675;29;20115;-82
2022/04/03 21:27:18;;;;;;;6.63;3.80;;;;;;;-0.12;90.24;101968.72;4926159;29;20043;-84
2022/04/03 21:29:44;;;;;;;4.87;3.27;;;;;;;-0.03;90.67;101982.75;4919544;29;20080;-83
2022/04/03 21:32:09;;;;;;;7.47;3.00;;;;;;;0.00;91.08;101977.19;4929148;29;20035;-84
2022/04/03 21:34:35;;;;;;;5.47;2.60;;;;;;;0.01;91.53;101977.97;4931660;29;20487;-84
2022/04/03 21:37:01;;;;;;;5.82;2.90;;;;;;;0.04;91.43;101972.41;4931848;29;20682;-84
2022/04/03 21:39:29;;;;;;;6.50;2.40;;;;;;;-0.11;91.69;101937.91;5183709;23;20067;-83
2022/04/03 21:41:56;;;;;;;5.80;2.87;;;;;;;0.03;91.59;101966.28;4913679;29;20024;-84
2022/04/03 21:44:22;;;;;;;6.32;2.70;;;;;;;0.02;91.42;101963.81;4911883;29;20123;-83
2022/04/03 21:46:48;;;;;;;5.18;3.05;;;;;;;0.00;92.10;101966.63;4914293;29;20075;-82
2022/04/03 21:49:14;;;;;;;8.20;3.00;;;;;;;-0.03;91.71;101956.41;4924391;29;20440;-83
2022/04/03 21:51:40;;;;;;;7.20;2.55;;;;;;;-0.11;91.72;101961.63;4897189;29;20047;-83
2022/04/03 21:54:06;;;;;;;4.37;2.50;;;;;;;-0.19;92.37;101952.72;4913556;29;20491;-84
2022/04/03 21:56:32;;;;;;;4.57;2.60;;;;;;;-0.20;92.66;101958.13;4913148;29;20509;-83
2022/04/03 21:58:57;;;;;;;4.95;2.40;;;;;;;-0.23;92.77;101964.56;4913255;29;20128;-84
2022/04/03 22:01:23;;;;;;;2.97;2.00;;;;;;;-0.31;93.15;101949.53;4912804;29;20032;-84
2022/04/03 22:03:49;;;;;;;5.15;2.20;;;;;;;-0.29;93.53;101948.56;4916589;29;20131;-84
2022/04/03 22:06:14;;;;;;;3.55;2.35;;;;;;;-0.34;93.62;101957.75;4912942;29;20116;-84
2022/04/03 22:08:41;;;;;;;4.20;2.43;;;;;;;-0.34;94.03;101952.47;4913406;29;20020;-83
2022/04/03 22:11:07;;;;;;;4.47;2.40;;;;;;;-0.33;93.84;101959.41;4913828;29;20028;-83
2022/04/03 22:13:32;;;;;;;5.97;2.72;;;;;;;-0.31;94.85;101956.59;4911811;29;20064;-83
2022/04/03 22:15:58;;;;;;;6.13;2.90;;;;;;;-0.33;95.13;101940.97;4913336;29;20075;-84
2022/04/03 22:18:25;;;;;;;4.43;2.60;;;;;;;-0.28;94.51;101958.94;4929568;29;20315;-83
2022/04/03 22:20:51;;;;;;;4.03;2.53;;;;;;;-0.33;94.14;101948.03;4920764;29;20092;-84
2022/04/03 22:23:17;;;;;;;7.43;2.42;;;;;;;-0.35;94.08;101958.72;4913284;29;20400;-83
2022/04/03 22:25:42;;;;;;;5.60;2.47;;;;;;;-0.37;94.96;101954.63;4912927;29;20028;-84
2022/04/03 22:28:08;;;;;;;4.55;2.53;;;;;;;-0.42;94.32;101951.63;4912610;29;20119;-83
2022/04/03 22:30:33;;;;;;;4.80;2.83;;;;;;;-0.44;95.56;101946.50;4895895;29;20048;-83
2022/04/03 22:32:59;;;;;;;4.40;2.50;;;;;;;-0.40;95.77;101945.19;4912070;29;20052;-83
2022/04/03 22:35:24;;;;;;;5.90;2.63;;;;;;;-0.41;95.43;101945.38;4913544;29;20123;-83
2022/04/03 22:37:49;;;;;;;3.80;2.40;;;;;;;-0.43;95.06;101942.06;4911826;29;20036;-83
2022/04/03 22:40:15;;;;;;;8.27;2.77;;;;;;;-0.48;95.39;101943.34;4913395;29;20040;-84
2022/04/03 22:42:42;;;;;;;4.25;2.92;;;;;;;-0.49;96.15;101941.69;4913063;29;20107;-83
2022/04/03 22:45:09;;;;;;;4.35;2.47;;;;;;;-0.48;96.56;101932.81;4913083;29;20236;-83
2022/04/03 22:47:36;;;;;;;5.18;2.80;;;;;;;-0.44;96.21;101922.78;4912182;29;20040;-82
2022/04/03 22:50:03;;;;;;;8.43;2.95;;;;;;;-0.43;96.17;101923.63;4928330;29;20047;-83
2022/04/03 22:52:28;;;;;;;5.00;2.45;;;;;;;-0.47;95.79;101929.22;4906827;29;20683;-83
2022/04/03 22:54:53;;;;;;;8.87;2.80;;;;;;;-0.53;95.30;101923.75;4913500;29;20047;-83
2022/04/03 22:57:19;;;;;;;5.67;3.00;;;;;;;-0.54;96.18;101917.63;4898283;29;20032;-83
2022/04/03 22:59:45;;;;;;;5.30;2.87;;;;;;;-0.59;96.26;101914.66;4915994;29;20174;-84
2022/04/03 23:02:14;;;;;;;5.40;3.05;;;;;;;-0.61;96.73;101906.09;4916101;29;20036;-83
2022/04/03 23:04:39;;;;;;;4.60;2.63;;;;;;;-0.63;96.25;101900.97;4919549;29;20038;-83
2022/04/03 23:07:04;;;;;;;7.53;3.10;;;;;;;-0.66;96.38;101900.47;4935344;29;20032;-83
2022/04/03 23:09:32;;;;;;;6.93;3.10;;;;;;;-0.66;96.37;101908.38;4920167;29;20437;-83
2022/04/03 23:11:58;;;;;;;4.97;2.88;;;;;;;-0.70;97.02;101907.03;4898878;29;20155;-83
2022/04/03 23:14:24;;;;;;;5.78;2.97;;;;;;;-0.68;97.16;101905.91;4916025;29;20032;-84
2022/04/03 23:16:49;;;;;;;8.43;2.83;;;;;;;-0.70;97.20;101897.34;4915922;29;20396;-84
2022/04/03 23:19:15;;;;;;;5.77;2.97;;;;;;;-0.69;97.63;101900.78;4915481;29;20484;-83
2022/04/03 23:21:41;;;;;;;7.40;3.30;;;;;;;-0.70;97.60;101892.06;4928238;29;20407;-83
2022/04/03 23:24:06;;;;;;;6.80;3.60;;;;;;;-0.73;97.42;101888.94;4934663;29;20056;-83
2022/04/03 23:26:32;;;;;;;9.53;3.80;;;;;;;-0.83;97.63;101876.69;4914792;29;20532;-84
2022/04/03 23:28:57;;;;;;;6.93;3.87;;;;;;;-0.77;97.55;101889.25;4915646;29;20115;-84
2022/04/03 23:31:25;;;;;;;8.65;3.78;;;;;;;-0.82;97.26;101880.97;4915393;29;20032;-83
2022/04/03 23:33:50;;;;;;;8.53;4.13;;;;;;;-0.84;98.25;101882.94;4915965;29;20032;-84
2022/04/03 23:36:15;;;;;;;8.50;4.10;;;;;;;-0.89;98.33;101872.03;4913660;29;20362;-84
2022/04/03 23:38:40;;;;;;;8.00;4.60;;;;;;;-0.88;98.59;101871.06;4933442;29;20032;-83
2022/04/03 23:41:06;;;;;;;7.70;4.20;;;;;;;-0.88;98.36;101872.88;4918417;29;20032;-84
2022/04/03 23:43:32;;;;;;;7.83;4.40;;;;;;;-0.96;98.62;101855.25;4897911;29;20040;-84
2022/04/03 23:46:00;;;;;;;7.63;4.57;;;;;;;-0.94;98.78;101863.81;4915608;29;20122;-84
2022/04/03 23:48:26;;;;;;;10.00;4.85;;;;;;;-0.93;98.71;101860.19;4915565;29;20016;-83
2022/04/03 23:50:52;;;;;;;7.35;4.80;;;;;;;-0.96;99.12;101857.88;4915443;29;20028;-83
2022/04/03 23:53:17;;;;;;;9.23;5.67;;;;;;;-0.94;98.62;101851.47;4905743;29;20039;-84
2022/04/03 23:55:43;;;;;;;10.20;5.40;;;;;;;-0.96;99.33;101842.91;4929224;29;20311;-84
2022/04/03 23:58:16;;;;;;;9.53;5.50;;;;;;;-0.92;99.22;101844.25;4918606;29;20510;-84
